sensor_id;sensor_type;location;lat;lon;timestamp;P1;durP1;ratioP1;P2;durP2;ratioP2
55467;SDS011;41332;42.702;23.200;2023-05-29T00:00:31;6.85;;;2.90;;
55467;SDS011;41332;42.702;23.200;2023-05-29T00:02:56;2.85;;;2.60;;
55467;SDS011;41332;42.702;23.200;2023-05-29T00:05:22;3.58;;;2.88;;
55467;SDS011;41332;42.702;23.200;2023-05-29T00:07:47;2.50;;;2.15;;
55467;SDS011;41332;42.702;23.200;2023-05-29T00:10:14;8.05;;;2.72;;
55467;SDS011;41332;42.702;23.200;2023-05-29T00:12:40;3.22;;;2.65;;
55467;SDS011;41332;42.702;23.200;2023-05-29T00:15:06;2.88;;;2.67;;
55467;SDS011;41332;42.702;23.200;2023-05-29T00:17:37;3.42;;;2.72;;
55467;SDS011;41332;42.702;23.200;2023-05-29T00:20:04;3.83;;;3.53;;
55467;SDS011;41332;42.702;23.200;2023-05-29T00:22:39;6.32;;;3.42;;
55467;SDS011;41332;42.702;23.200;2023-05-29T00:25:05;3.05;;;2.80;;
55467;SDS011;41332;42.702;23.200;2023-05-29T00:27:31;2.78;;;2.55;;
55467;SDS011;41332;42.702;23.200;2023-05-29T00:29:57;3.03;;;2.72;;
55467;SDS011;41332;42.702;23.200;2023-05-29T00:32:23;2.75;;;2.55;;
55467;SDS011;41332;42.702;23.200;2023-05-29T00:34:48;2.92;;;2.70;;
55467;SDS011;41332;42.702;23.200;2023-05-29T00:37:15;3.15;;;2.80;;
55467;SDS011;41332;42.702;23.200;2023-05-29T00:39:40;4.82;;;3.17;;
55467;SDS011;41332;42.702;23.200;2023-05-29T00:42:06;3.35;;;3.05;;
55467;SDS011;41332;42.702;23.200;2023-05-29T00:44:31;6.90;;;3.88;;
55467;SDS011;41332;42.702;23.200;2023-05-29T00:46:56;6.18;;;3.70;;
55467;SDS011;41332;42.702;23.200;2023-05-29T00:49:23;4.10;;;3.63;;
55467;SDS011;41332;42.702;23.200;2023-05-29T00:51:49;4.93;;;3.13;;
55467;SDS011;41332;42.702;23.200;2023-05-29T00:59:11;3.33;;;2.50;;
55467;SDS011;41332;42.702;23.200;2023-05-29T01:01:37;2.97;;;2.78;;
55467;SDS011;41332;42.702;23.200;2023-05-29T01:04:04;3.43;;;3.07;;
55467;SDS011;41332;42.702;23.200;2023-05-29T01:06:31;4.63;;;3.38;;
55467;SDS011;41332;42.702;23.200;2023-05-29T01:08:57;5.47;;;3.15;;
55467;SDS011;41332;42.702;23.200;2023-05-29T01:11:28;3.78;;;2.80;;
55467;SDS011;41332;42.702;23.200;2023-05-29T01:14:00;3.35;;;3.00;;
55467;SDS011;41332;42.702;23.200;2023-05-29T01:19:28;6.22;;;2.97;;
55467;SDS011;41332;42.702;23.200;2023-05-29T01:25:53;3.15;;;2.88;;
55467;SDS011;41332;42.702;23.200;2023-05-29T01:28:07;6.80;;;3.58;;
55467;SDS011;41332;42.702;23.200;2023-05-29T01:30:36;3.97;;;2.78;;
55467;SDS011;41332;42.702;23.200;2023-05-29T01:33:03;5.50;;;3.28;;
55467;SDS011;41332;42.702;23.200;2023-05-29T01:35:29;5.88;;;3.67;;
55467;SDS011;41332;42.702;23.200;2023-05-29T01:37:54;4.68;;;3.28;;
55467;SDS011;41332;42.702;23.200;2023-05-29T01:40:20;3.38;;;3.17;;
55467;SDS011;41332;42.702;23.200;2023-05-29T01:42:45;6.10;;;3.75;;
55467;SDS011;41332;42.702;23.200;2023-05-29T01:45:11;5.28;;;3.47;;
55467;SDS011;41332;42.702;23.200;2023-05-29T01:47:37;3.70;;;3.33;;
55467;SDS011;41332;42.702;23.200;2023-05-29T01:50:03;3.50;;;3.20;;
55467;SDS011;41332;42.702;23.200;2023-05-29T01:52:29;4.40;;;3.33;;
55467;SDS011;41332;42.702;23.200;2023-05-29T01:54:55;3.33;;;2.78;;
55467;SDS011;41332;42.702;23.200;2023-05-29T01:57:21;6.32;;;2.95;;
55467;SDS011;41332;42.702;23.200;2023-05-29T01:59:47;4.47;;;3.20;;
55467;SDS011;41332;42.702;23.200;2023-05-29T02:02:12;4.43;;;3.67;;
55467;SDS011;41332;42.702;23.200;2023-05-29T02:04:38;4.32;;;3.38;;
55467;SDS011;41332;42.702;23.200;2023-05-29T02:07:03;3.53;;;3.15;;
55467;SDS011;41332;42.702;23.200;2023-05-29T02:09:29;3.22;;;2.97;;
55467;SDS011;41332;42.702;23.200;2023-05-29T02:11:55;3.65;;;3.38;;
55467;SDS011;41332;42.702;23.200;2023-05-29T02:14:21;5.47;;;3.78;;
55467;SDS011;41332;42.702;23.200;2023-05-29T02:16:49;3.40;;;3.10;;
55467;SDS011;41332;42.702;23.200;2023-05-29T02:19:16;3.75;;;3.35;;
55467;SDS011;41332;42.702;23.200;2023-05-29T02:21:43;4.00;;;3.20;;
55467;SDS011;41332;42.702;23.200;2023-05-29T02:24:08;5.95;;;3.53;;
55467;SDS011;41332;42.702;23.200;2023-05-29T02:26:33;5.60;;;3.53;;
55467;SDS011;41332;42.702;23.200;2023-05-29T02:29:01;6.50;;;3.55;;
55467;SDS011;41332;42.702;23.200;2023-05-29T02:31:27;3.67;;;3.38;;
55467;SDS011;41332;42.702;23.200;2023-05-29T02:33:52;3.83;;;3.50;;
55467;SDS011;41332;42.702;23.200;2023-05-29T02:36:17;5.25;;;3.55;;
55467;SDS011;41332;42.702;23.200;2023-05-29T02:38:43;4.57;;;3.70;;
55467;SDS011;41332;42.702;23.200;2023-05-29T02:41:08;3.47;;;3.15;;
55467;SDS011;41332;42.702;23.200;2023-05-29T02:43:33;4.80;;;3.70;;
55467;SDS011;41332;42.702;23.200;2023-05-29T02:45:59;3.50;;;3.20;;
55467;SDS011;41332;42.702;23.200;2023-05-29T02:48:24;4.43;;;4.03;;
55467;SDS011;41332;42.702;23.200;2023-05-29T02:50:51;5.53;;;4.05;;
55467;SDS011;41332;42.702;23.200;2023-05-29T02:53:16;6.20;;;4.55;;
55467;SDS011;41332;42.702;23.200;2023-05-29T02:55:41;3.17;;;2.97;;
55467;SDS011;41332;42.702;23.200;2023-05-29T02:58:07;5.43;;;4.07;;
55467;SDS011;41332;42.702;23.200;2023-05-29T03:00:33;6.03;;;4.15;;
55467;SDS011;41332;42.702;23.200;2023-05-29T03:02:58;7.43;;;4.07;;
55467;SDS011;41332;42.702;23.200;2023-05-29T03:05:24;4.32;;;3.70;;
55467;SDS011;41332;42.702;23.200;2023-05-29T03:07:50;4.63;;;4.22;;
55467;SDS011;41332;42.702;23.200;2023-05-29T03:10:16;5.68;;;4.07;;
55467;SDS011;41332;42.702;23.200;2023-05-29T03:12:42;4.65;;;4.15;;
55467;SDS011;41332;42.702;23.200;2023-05-29T03:15:09;4.65;;;4.07;;
55467;SDS011;41332;42.702;23.200;2023-05-29T03:17:34;6.82;;;4.40;;
55467;SDS011;41332;42.702;23.200;2023-05-29T03:22:30;6.70;;;4.38;;
55467;SDS011;41332;42.702;23.200;2023-05-29T03:24:56;5.47;;;4.53;;
55467;SDS011;41332;42.702;23.200;2023-05-29T03:27:21;9.32;;;4.43;;
55467;SDS011;41332;42.702;23.200;2023-05-29T03:29:47;5.85;;;5.15;;
55467;SDS011;41332;42.702;23.200;2023-05-29T03:32:12;6.60;;;5.18;;
55467;SDS011;41332;42.702;23.200;2023-05-29T03:34:38;7.50;;;6.32;;
55467;SDS011;41332;42.702;23.200;2023-05-29T03:37:04;7.00;;;5.20;;
55467;SDS011;41332;42.702;23.200;2023-05-29T03:39:30;5.85;;;5.13;;
55467;SDS011;41332;42.702;23.200;2023-05-29T03:41:55;6.07;;;5.30;;
55467;SDS011;41332;42.702;23.200;2023-05-29T03:44:21;8.88;;;5.53;;
55467;SDS011;41332;42.702;23.200;2023-05-29T03:46:46;5.82;;;4.80;;
55467;SDS011;41332;42.702;23.200;2023-05-29T03:49:12;6.13;;;5.30;;
55467;SDS011;41332;42.702;23.200;2023-05-29T03:51:37;6.15;;;5.57;;
55467;SDS011;41332;42.702;23.200;2023-05-29T03:54:03;8.68;;;5.95;;
55467;SDS011;41332;42.702;23.200;2023-05-29T03:56:28;6.53;;;5.25;;
55467;SDS011;41332;42.702;23.200;2023-05-29T03:58:54;7.70;;;5.60;;
55467;SDS011;41332;42.702;23.200;2023-05-29T04:01:20;7.82;;;5.82;;
55467;SDS011;41332;42.702;23.200;2023-05-29T04:03:45;7.60;;;5.40;;
55467;SDS011;41332;42.702;23.200;2023-05-29T04:06:11;10.98;;;6.75;;
55467;SDS011;41332;42.702;23.200;2023-05-29T04:08:36;10.85;;;6.15;;
55467;SDS011;41332;42.702;23.200;2023-05-29T04:11:02;6.40;;;5.57;;
55467;SDS011;41332;42.702;23.200;2023-05-29T04:13:28;8.13;;;6.28;;
55467;SDS011;41332;42.702;23.200;2023-05-29T04:15:54;10.10;;;6.45;;
55467;SDS011;41332;42.702;23.200;2023-05-29T04:18:20;10.23;;;8.25;;
55467;SDS011;41332;42.702;23.200;2023-05-29T04:20:46;14.13;;;7.13;;
55467;SDS011;41332;42.702;23.200;2023-05-29T04:23:12;8.23;;;6.70;;
55467;SDS011;41332;42.702;23.200;2023-05-29T04:25:38;9.27;;;6.88;;
55467;SDS011;41332;42.702;23.200;2023-05-29T04:28:03;7.15;;;6.00;;
55467;SDS011;41332;42.702;23.200;2023-05-29T04:30:28;11.88;;;6.20;;
55467;SDS011;41332;42.702;23.200;2023-05-29T04:32:54;8.73;;;6.10;;
55467;SDS011;41332;42.702;23.200;2023-05-29T04:35:20;8.32;;;5.47;;
55467;SDS011;41332;42.702;23.200;2023-05-29T04:37:46;7.07;;;6.30;;
55467;SDS011;41332;42.702;23.200;2023-05-29T04:40:12;10.80;;;6.25;;
55467;SDS011;41332;42.702;23.200;2023-05-29T04:42:42;8.05;;;5.93;;
55467;SDS011;41332;42.702;23.200;2023-05-29T04:45:09;8.40;;;6.20;;
55467;SDS011;41332;42.702;23.200;2023-05-29T04:47:38;7.20;;;6.03;;
55467;SDS011;41332;42.702;23.200;2023-05-29T04:50:12;9.45;;;6.15;;
55467;SDS011;41332;42.702;23.200;2023-05-29T04:52:39;6.18;;;5.22;;
55467;SDS011;41332;42.702;23.200;2023-05-29T04:55:04;12.55;;;6.68;;
55467;SDS011;41332;42.702;23.200;2023-05-29T04:57:30;9.40;;;6.93;;
55467;SDS011;41332;42.702;23.200;2023-05-29T04:59:56;12.52;;;5.88;;
55467;SDS011;41332;42.702;23.200;2023-05-29T05:02:21;8.52;;;5.78;;
55467;SDS011;41332;42.702;23.200;2023-05-29T05:04:47;6.13;;;5.43;;
55467;SDS011;41332;42.702;23.200;2023-05-29T05:07:12;6.68;;;5.32;;
55467;SDS011;41332;42.702;23.200;2023-05-29T05:09:41;6.47;;;5.03;;
55467;SDS011;41332;42.702;23.200;2023-05-29T05:12:06;8.15;;;5.53;;
55467;SDS011;41332;42.702;23.200;2023-05-29T05:14:32;5.25;;;4.68;;
55467;SDS011;41332;42.702;23.200;2023-05-29T05:16:57;5.68;;;4.32;;
55467;SDS011;41332;42.702;23.200;2023-05-29T05:19:23;5.28;;;4.78;;
55467;SDS011;41332;42.702;23.200;2023-05-29T05:21:48;6.05;;;4.75;;
55467;SDS011;41332;42.702;23.200;2023-05-29T05:24:13;6.18;;;5.07;;
55467;SDS011;41332;42.702;23.200;2023-05-29T05:26:39;6.60;;;4.95;;
55467;SDS011;41332;42.702;23.200;2023-05-29T05:29:04;7.78;;;5.30;;
55467;SDS011;41332;42.702;23.200;2023-05-29T05:31:30;8.60;;;4.90;;
55467;SDS011;41332;42.702;23.200;2023-05-29T05:33:55;5.28;;;4.15;;
55467;SDS011;41332;42.702;23.200;2023-05-29T05:36:21;7.22;;;5.18;;
55467;SDS011;41332;42.702;23.200;2023-05-29T05:38:49;5.47;;;4.70;;
55467;SDS011;41332;42.702;23.200;2023-05-29T05:41:15;5.82;;;4.90;;
55467;SDS011;41332;42.702;23.200;2023-05-29T05:43:40;6.15;;;5.50;;
55467;SDS011;41332;42.702;23.200;2023-05-29T05:46:05;5.88;;;5.35;;
55467;SDS011;41332;42.702;23.200;2023-05-29T05:48:31;5.30;;;4.75;;
55467;SDS011;41332;42.702;23.200;2023-05-29T05:50:56;8.63;;;4.50;;
55467;SDS011;41332;42.702;23.200;2023-05-29T05:53:21;10.27;;;5.03;;
55467;SDS011;41332;42.702;23.200;2023-05-29T05:55:47;14.93;;;5.25;;
55467;SDS011;41332;42.702;23.200;2023-05-29T05:58:12;9.27;;;4.78;;
55467;SDS011;41332;42.702;23.200;2023-05-29T06:00:39;6.88;;;4.22;;
55467;SDS011;41332;42.702;23.200;2023-05-29T06:03:05;5.47;;;4.63;;
55467;SDS011;41332;42.702;23.200;2023-05-29T06:05:30;5.65;;;3.92;;
55467;SDS011;41332;42.702;23.200;2023-05-29T06:07:55;5.38;;;3.95;;
55467;SDS011;41332;42.702;23.200;2023-05-29T06:10:21;5.85;;;3.83;;
55467;SDS011;41332;42.702;23.200;2023-05-29T06:12:46;8.02;;;4.30;;
55467;SDS011;41332;42.702;23.200;2023-05-29T06:15:12;9.55;;;3.47;;
55467;SDS011;41332;42.702;23.200;2023-05-29T06:17:37;5.13;;;4.18;;
55467;SDS011;41332;42.702;23.200;2023-05-29T06:20:03;7.50;;;3.47;;
55467;SDS011;41332;42.702;23.200;2023-05-29T06:22:38;5.72;;;4.20;;
55467;SDS011;41332;42.702;23.200;2023-05-29T06:25:04;5.60;;;4.40;;
55467;SDS011;41332;42.702;23.200;2023-05-29T06:27:30;7.55;;;4.53;;
55467;SDS011;41332;42.702;23.200;2023-05-29T06:29:55;5.28;;;3.92;;
55467;SDS011;41332;42.702;23.200;2023-05-29T06:32:21;6.90;;;4.53;;
55467;SDS011;41332;42.702;23.200;2023-05-29T06:34:46;6.05;;;3.90;;
55467;SDS011;41332;42.702;23.200;2023-05-29T06:37:12;6.55;;;2.80;;
55467;SDS011;41332;42.702;23.200;2023-05-29T06:39:38;4.10;;;3.40;;
55467;SDS011;41332;42.702;23.200;2023-05-29T06:42:07;4.20;;;3.55;;
55467;SDS011;41332;42.702;23.200;2023-05-29T06:44:32;4.20;;;3.42;;
55467;SDS011;41332;42.702;23.200;2023-05-29T06:46:58;4.53;;;3.80;;
55467;SDS011;41332;42.702;23.200;2023-05-29T06:49:23;4.95;;;3.60;;
55467;SDS011;41332;42.702;23.200;2023-05-29T06:51:48;3.20;;;2.90;;
55467;SDS011;41332;42.702;23.200;2023-05-29T06:54:14;9.73;;;3.38;;
55467;SDS011;41332;42.702;23.200;2023-05-29T06:56:39;4.68;;;2.75;;
55467;SDS011;41332;42.702;23.200;2023-05-29T06:59:04;8.48;;;4.38;;
55467;SDS011;41332;42.702;23.200;2023-05-29T07:01:30;5.20;;;3.10;;
55467;SDS011;41332;42.702;23.200;2023-05-29T07:03:55;3.80;;;2.97;;
55467;SDS011;41332;42.702;23.200;2023-05-29T07:06:21;2.53;;;2.33;;
55467;SDS011;41332;42.702;23.200;2023-05-29T07:08:46;4.25;;;2.00;;
55467;SDS011;41332;42.702;23.200;2023-05-29T07:11:12;4.55;;;1.98;;
55467;SDS011;41332;42.702;23.200;2023-05-29T07:13:37;2.13;;;2.03;;
55467;SDS011;41332;42.702;23.200;2023-05-29T07:16:02;2.35;;;2.15;;
55467;SDS011;41332;42.702;23.200;2023-05-29T07:18:28;1.60;;;1.50;;
55467;SDS011;41332;42.702;23.200;2023-05-29T07:20:55;3.17;;;1.98;;
55467;SDS011;41332;42.702;23.200;2023-05-29T07:23:21;3.92;;;1.60;;
55467;SDS011;41332;42.702;23.200;2023-05-29T07:25:46;1.65;;;1.30;;
55467;SDS011;41332;42.702;23.200;2023-05-29T07:28:12;1.30;;;1.20;;
55467;SDS011;41332;42.702;23.200;2023-05-29T07:30:37;1.65;;;1.55;;
55467;SDS011;41332;42.702;23.200;2023-05-29T07:33:03;1.25;;;1.25;;
55467;SDS011;41332;42.702;23.200;2023-05-29T07:35:28;1.95;;;1.20;;
55467;SDS011;41332;42.702;23.200;2023-05-29T07:37:54;1.50;;;1.40;;
55467;SDS011;41332;42.702;23.200;2023-05-29T07:40:19;1.60;;;1.27;;
55467;SDS011;41332;42.702;23.200;2023-05-29T07:42:45;1.33;;;1.27;;
55467;SDS011;41332;42.702;23.200;2023-05-29T07:45:10;2.22;;;1.40;;
55467;SDS011;41332;42.702;23.200;2023-05-29T07:47:36;1.15;;;1.15;;
55467;SDS011;41332;42.702;23.200;2023-05-29T07:50:01;1.38;;;1.27;;
55467;SDS011;41332;42.702;23.200;2023-05-29T07:52:27;1.83;;;1.42;;
55467;SDS011;41332;42.702;23.200;2023-05-29T07:54:52;1.38;;;1.27;;
55467;SDS011;41332;42.702;23.200;2023-05-29T07:57:18;2.05;;;1.00;;
55467;SDS011;41332;42.702;23.200;2023-05-29T07:59:43;2.00;;;1.10;;
55467;SDS011;41332;42.702;23.200;2023-05-29T08:02:09;3.95;;;1.40;;
55467;SDS011;41332;42.702;23.200;2023-05-29T08:04:35;1.88;;;1.35;;
55467;SDS011;41332;42.702;23.200;2023-05-29T08:07:01;2.42;;;0.90;;
55467;SDS011;41332;42.702;23.200;2023-05-29T08:09:28;1.60;;;1.50;;
55467;SDS011;41332;42.702;23.200;2023-05-29T08:11:54;1.50;;;1.40;;
55467;SDS011;41332;42.702;23.200;2023-05-29T08:14:20;1.63;;;1.15;;
55467;SDS011;41332;42.702;23.200;2023-05-29T08:16:48;4.22;;;1.60;;
55467;SDS011;41332;42.702;23.200;2023-05-29T08:19:13;1.33;;;1.23;;
55467;SDS011;41332;42.702;23.200;2023-05-29T08:21:39;1.95;;;1.85;;
55467;SDS011;41332;42.702;23.200;2023-05-29T08:24:05;1.30;;;1.30;;
55467;SDS011;41332;42.702;23.200;2023-05-29T08:26:31;1.70;;;1.58;;
55467;SDS011;41332;42.702;23.200;2023-05-29T08:28:56;6.82;;;1.90;;
55467;SDS011;41332;42.702;23.200;2023-05-29T08:31:22;1.92;;;1.40;;
55467;SDS011;41332;42.702;23.200;2023-05-29T08:33:50;1.60;;;1.50;;
55467;SDS011;41332;42.702;23.200;2023-05-29T08:36:17;2.78;;;1.70;;
55467;SDS011;41332;42.702;23.200;2023-05-29T08:38:43;1.98;;;1.73;;
55467;SDS011;41332;42.702;23.200;2023-05-29T08:41:08;2.25;;;1.52;;
55467;SDS011;41332;42.702;23.200;2023-05-29T08:43:40;1.50;;;1.40;;
55467;SDS011;41332;42.702;23.200;2023-05-29T08:46:06;1.85;;;1.70;;
55467;SDS011;41332;42.702;23.200;2023-05-29T08:48:32;2.75;;;1.50;;
55467;SDS011;41332;42.702;23.200;2023-05-29T08:51:03;1.73;;;1.63;;
55467;SDS011;41332;42.702;23.200;2023-05-29T08:53:29;2.67;;;1.73;;
55467;SDS011;41332;42.702;23.200;2023-05-29T08:55:56;2.15;;;2.05;;
55467;SDS011;41332;42.702;23.200;2023-05-29T08:58:23;5.40;;;1.70;;
55467;SDS011;41332;42.702;23.200;2023-05-29T09:00:49;2.28;;;2.03;;
55467;SDS011;41332;42.702;23.200;2023-05-29T09:03:16;2.05;;;1.95;;
55467;SDS011;41332;42.702;23.200;2023-05-29T09:05:42;2.10;;;2.00;;
55467;SDS011;41332;42.702;23.200;2023-05-29T09:08:09;2.58;;;2.33;;
55467;SDS011;41332;42.702;23.200;2023-05-29T09:10:37;1.67;;;1.58;;
55467;SDS011;41332;42.702;23.200;2023-05-29T09:13:06;2.05;;;1.75;;
55467;SDS011;41332;42.702;23.200;2023-05-29T09:15:32;1.88;;;1.77;;
55467;SDS011;41332;42.702;23.200;2023-05-29T09:17:58;2.45;;;2.22;;
55467;SDS011;41332;42.702;23.200;2023-05-29T09:20:24;2.28;;;2.05;;
55467;SDS011;41332;42.702;23.200;2023-05-29T09:22:56;2.13;;;2.03;;
55467;SDS011;41332;42.702;23.200;2023-05-29T09:25:24;2.50;;;2.17;;
55467;SDS011;41332;42.702;23.200;2023-05-29T09:32:57;1.73;;;1.63;;
55467;SDS011;41332;42.702;23.200;2023-05-29T09:35:25;2.95;;;2.65;;
55467;SDS011;41332;42.702;23.200;2023-05-29T09:37:50;2.30;;;2.20;;
55467;SDS011;41332;42.702;23.200;2023-05-29T09:40:16;3.80;;;2.42;;
55467;SDS011;41332;42.702;23.200;2023-05-29T09:42:41;2.72;;;2.53;;
55467;SDS011;41332;42.702;23.200;2023-05-29T09:45:07;2.45;;;2.25;;
55467;SDS011;41332;42.702;23.200;2023-05-29T09:47:33;2.25;;;2.13;;
55467;SDS011;41332;42.702;23.200;2023-05-29T09:50:00;3.23;;;2.07;;
55467;SDS011;41332;42.702;23.200;2023-05-29T09:52:26;3.95;;;2.55;;
55467;SDS011;41332;42.702;23.200;2023-05-29T09:54:55;2.95;;;1.90;;
55467;SDS011;41332;42.702;23.200;2023-05-29T10:08:28;2.97;;;2.05;;
55467;SDS011;41332;42.702;23.200;2023-05-29T10:11:01;2.30;;;2.10;;
55467;SDS011;41332;42.702;23.200;2023-05-29T10:13:31;2.30;;;2.10;;
55467;SDS011;41332;42.702;23.200;2023-05-29T10:16:01;2.08;;;1.98;;
55467;SDS011;41332;42.702;23.200;2023-05-29T10:18:37;2.80;;;2.28;;
55467;SDS011;41332;42.702;23.200;2023-05-29T10:21:04;2.90;;;2.70;;
55467;SDS011;41332;42.702;23.200;2023-05-29T10:23:32;4.38;;;2.60;;
55467;SDS011;41332;42.702;23.200;2023-05-29T10:26:06;2.33;;;2.08;;
55467;SDS011;41332;42.702;23.200;2023-05-29T10:28:41;2.08;;;1.88;;
55467;SDS011;41332;42.702;23.200;2023-05-29T10:31:16;2.28;;;1.95;;
55467;SDS011;41332;42.702;23.200;2023-05-29T10:36:20;4.35;;;2.25;;
55467;SDS011;41332;42.702;23.200;2023-05-29T10:38:49;2.58;;;2.38;;
55467;SDS011;41332;42.702;23.200;2023-05-29T10:44:00;2.55;;;2.40;;
55467;SDS011;41332;42.702;23.200;2023-05-29T10:49:19;2.42;;;2.25;;
55467;SDS011;41332;42.702;23.200;2023-05-29T10:51:45;2.63;;;2.33;;
55467;SDS011;41332;42.702;23.200;2023-05-29T10:54:11;2.85;;;2.25;;
55467;SDS011;41332;42.702;23.200;2023-05-29T10:56:36;2.58;;;2.15;;
55467;SDS011;41332;42.702;23.200;2023-05-29T10:59:02;2.65;;;2.00;;
55467;SDS011;41332;42.702;23.200;2023-05-29T11:01:31;2.97;;;2.20;;
55467;SDS011;41332;42.702;23.200;2023-05-29T11:06:40;1.95;;;1.85;;
55467;SDS011;41332;42.702;23.200;2023-05-29T11:09:25;2.50;;;2.30;;
55467;SDS011;41332;42.702;23.200;2023-05-29T11:14:46;3.25;;;2.10;;
55467;SDS011;41332;42.702;23.200;2023-05-29T11:20:00;4.55;;;2.08;;
55467;SDS011;41332;42.702;23.200;2023-05-29T11:22:30;3.45;;;1.73;;
55467;SDS011;41332;42.702;23.200;2023-05-29T11:25:09;2.33;;;2.13;;
55467;SDS011;41332;42.702;23.200;2023-05-29T11:27:38;1.90;;;1.80;;
55467;SDS011;41332;42.702;23.200;2023-05-29T11:30:04;3.47;;;2.17;;
55467;SDS011;41332;42.702;23.200;2023-05-29T11:32:30;3.80;;;2.13;;
55467;SDS011;41332;42.702;23.200;2023-05-29T11:34:59;4.10;;;2.45;;
55467;SDS011;41332;42.702;23.200;2023-05-29T11:37:33;2.40;;;2.30;;
55467;SDS011;41332;42.702;23.200;2023-05-29T11:40:11;2.30;;;2.00;;
55467;SDS011;41332;42.702;23.200;2023-05-29T11:42:43;3.07;;;2.13;;
55467;SDS011;41332;42.702;23.200;2023-05-29T11:50:21;1.75;;;1.65;;
55467;SDS011;41332;42.702;23.200;2023-05-29T11:52:48;2.88;;;2.63;;
55467;SDS011;41332;42.702;23.200;2023-05-29T11:55:14;3.40;;;1.98;;
55467;SDS011;41332;42.702;23.200;2023-05-29T11:57:39;5.40;;;2.45;;
55467;SDS011;41332;42.702;23.200;2023-05-29T12:00:06;3.70;;;3.40;;
55467;SDS011;41332;42.702;23.200;2023-05-29T12:02:32;5.10;;;2.30;;
55467;SDS011;41332;42.702;23.200;2023-05-29T12:05:04;4.35;;;2.95;;
55467;SDS011;41332;42.702;23.200;2023-05-29T12:07:33;4.25;;;3.38;;
55467;SDS011;41332;42.702;23.200;2023-05-29T12:10:09;2.17;;;2.05;;
55467;SDS011;41332;42.702;23.200;2023-05-29T12:12:38;6.38;;;3.20;;
55467;SDS011;41332;42.702;23.200;2023-05-29T12:15:05;4.75;;;2.38;;
55467;SDS011;41332;42.702;23.200;2023-05-29T12:17:32;2.53;;;2.33;;
55467;SDS011;41332;42.702;23.200;2023-05-29T12:19:58;2.63;;;2.43;;
55467;SDS011;41332;42.702;23.200;2023-05-29T12:22:31;2.85;;;2.10;;
55467;SDS011;41332;42.702;23.200;2023-05-29T12:25:07;2.47;;;2.28;;
55467;SDS011;41332;42.702;23.200;2023-05-29T12:27:34;2.28;;;2.10;;
55467;SDS011;41332;42.702;23.200;2023-05-29T12:30:06;1.90;;;1.80;;
55467;SDS011;41332;42.702;23.200;2023-05-29T12:32:36;3.78;;;2.50;;
55467;SDS011;41332;42.702;23.200;2023-05-29T12:35:23;5.78;;;2.53;;
55467;SDS011;41332;42.702;23.200;2023-05-29T12:37:57;4.45;;;3.60;;
55467;SDS011;41332;42.702;23.200;2023-05-29T12:40:27;5.32;;;3.63;;
55467;SDS011;41332;42.702;23.200;2023-05-29T12:45:21;6.82;;;3.53;;
55467;SDS011;41332;42.702;23.200;2023-05-29T12:47:50;3.33;;;3.03;;
55467;SDS011;41332;42.702;23.200;2023-05-29T12:50:20;6.38;;;3.72;;
55467;SDS011;41332;42.702;23.200;2023-05-29T12:55:32;4.93;;;3.60;;
55467;SDS011;41332;42.702;23.200;2023-05-29T12:58:01;6.43;;;3.85;;
55467;SDS011;41332;42.702;23.200;2023-05-29T13:00:27;7.43;;;4.10;;
55467;SDS011;41332;42.702;23.200;2023-05-29T13:02:53;5.90;;;4.00;;
55467;SDS011;41332;42.702;23.200;2023-05-29T13:05:18;5.05;;;4.25;;
55467;SDS011;41332;42.702;23.200;2023-05-29T13:07:44;3.38;;;3.08;;
55467;SDS011;41332;42.702;23.200;2023-05-29T13:10:11;4.60;;;2.90;;
55467;SDS011;41332;42.702;23.200;2023-05-29T13:12:36;5.82;;;3.95;;
55467;SDS011;41332;42.702;23.200;2023-05-29T13:15:02;7.07;;;3.40;;
55467;SDS011;41332;42.702;23.200;2023-05-29T13:17:27;5.53;;;2.80;;
55467;SDS011;41332;42.702;23.200;2023-05-29T13:19:53;5.55;;;2.92;;
55467;SDS011;41332;42.702;23.200;2023-05-29T13:22:18;6.93;;;3.40;;
55467;SDS011;41332;42.702;23.200;2023-05-29T13:24:44;4.07;;;2.53;;
55467;SDS011;41332;42.702;23.200;2023-05-29T13:27:10;4.97;;;2.50;;
55467;SDS011;41332;42.702;23.200;2023-05-29T13:29:38;2.97;;;2.75;;
55467;SDS011;41332;42.702;23.200;2023-05-29T13:32:05;3.83;;;2.38;;
55467;SDS011;41332;42.702;23.200;2023-05-29T13:34:31;2.88;;;2.67;;
55467;SDS011;41332;42.702;23.200;2023-05-29T13:36:56;3.13;;;2.58;;
55467;SDS011;41332;42.702;23.200;2023-05-29T13:39:22;2.53;;;1.98;;
55467;SDS011;41332;42.702;23.200;2023-05-29T13:41:47;2.80;;;2.60;;
55467;SDS011;41332;42.702;23.200;2023-05-29T13:44:13;3.42;;;3.15;;
55467;SDS011;41332;42.702;23.200;2023-05-29T13:46:38;2.58;;;2.38;;
55467;SDS011;41332;42.702;23.200;2023-05-29T13:49:04;2.30;;;2.10;;
55467;SDS011;41332;42.702;23.200;2023-05-29T13:51:30;3.55;;;1.60;;
55467;SDS011;41332;42.702;23.200;2023-05-29T13:53:55;2.42;;;2.22;;
55467;SDS011;41332;42.702;23.200;2023-05-29T13:56:20;0.80;;;0.80;;
55467;SDS011;41332;42.702;23.200;2023-05-29T13:58:46;0.65;;;0.60;;
55467;SDS011;41332;42.702;23.200;2023-05-29T14:01:11;0.68;;;0.60;;
55467;SDS011;41332;42.702;23.200;2023-05-29T14:03:38;0.47;;;0.47;;
55467;SDS011;41332;42.702;23.200;2023-05-29T14:06:03;3.25;;;0.50;;
55467;SDS011;41332;42.702;23.200;2023-05-29T14:10:56;1.27;;;0.40;;
55467;SDS011;41332;42.702;23.200;2023-05-29T14:13:21;0.40;;;0.35;;
55467;SDS011;41332;42.702;23.200;2023-05-29T14:15:46;1.42;;;0.90;;
55467;SDS011;41332;42.702;23.200;2023-05-29T14:18:14;1.77;;;0.63;;
55467;SDS011;41332;42.702;23.200;2023-05-29T14:20:39;0.88;;;0.63;;
55467;SDS011;41332;42.702;23.200;2023-05-29T14:23:05;0.52;;;0.28;;
55467;SDS011;41332;42.702;23.200;2023-05-29T14:25:30;0.50;;;0.50;;
55467;SDS011;41332;42.702;23.200;2023-05-29T14:27:55;0.30;;;0.28;;
55467;SDS011;41332;42.702;23.200;2023-05-29T14:30:21;5.05;;;0.60;;
55467;SDS011;41332;42.702;23.200;2023-05-29T14:32:46;0.40;;;0.40;;
55467;SDS011;41332;42.702;23.200;2023-05-29T14:35:13;0.93;;;0.50;;
55467;SDS011;41332;42.702;23.200;2023-05-29T14:37:38;0.70;;;0.70;;
55467;SDS011;41332;42.702;23.200;2023-05-29T14:40:04;0.57;;;0.57;;
55467;SDS011;41332;42.702;23.200;2023-05-29T14:42:30;0.55;;;0.55;;
55467;SDS011;41332;42.702;23.200;2023-05-29T14:44:55;0.68;;;0.68;;
55467;SDS011;41332;42.702;23.200;2023-05-29T14:47:21;1.85;;;0.75;;
55467;SDS011;41332;42.702;23.200;2023-05-29T14:49:46;0.47;;;0.45;;
55467;SDS011;41332;42.702;23.200;2023-05-29T14:52:12;0.98;;;0.50;;
55467;SDS011;41332;42.702;23.200;2023-05-29T14:54:37;0.73;;;0.40;;
55467;SDS011;41332;42.702;23.200;2023-05-29T14:57:02;0.60;;;0.60;;
55467;SDS011;41332;42.702;23.200;2023-05-29T14:59:28;1.15;;;0.70;;
55467;SDS011;41332;42.702;23.200;2023-05-29T15:01:53;1.88;;;1.73;;
55467;SDS011;41332;42.702;23.200;2023-05-29T15:04:19;0.80;;;0.80;;
55467;SDS011;41332;42.702;23.200;2023-05-29T15:06:44;1.02;;;0.93;;
55467;SDS011;41332;42.702;23.200;2023-05-29T15:09:10;0.77;;;0.77;;
55467;SDS011;41332;42.702;23.200;2023-05-29T15:11:36;3.10;;;1.20;;
55467;SDS011;41332;42.702;23.200;2023-05-29T15:14:01;4.03;;;2.17;;
55467;SDS011;41332;42.702;23.200;2023-05-29T15:16:26;3.05;;;1.10;;
55467;SDS011;41332;42.702;23.200;2023-05-29T15:18:52;1.42;;;1.33;;
55467;SDS011;41332;42.702;23.200;2023-05-29T15:21:17;1.20;;;1.10;;
55467;SDS011;41332;42.702;23.200;2023-05-29T15:23:43;1.10;;;1.10;;
55467;SDS011;41332;42.702;23.200;2023-05-29T15:26:08;2.70;;;1.35;;
55467;SDS011;41332;42.702;23.200;2023-05-29T15:28:34;3.08;;;1.90;;